Time;durP1;ratioP1;P1;durP2;ratioP2;P2;SDS_P1;SDS_P2;PMS_P1;PMS_P2;Temp;Humidity;BMP_temperature;BMP_pressure;BME280_temperature;BME280_humidity;BME280_pressure;Samples;Min_cycle;Max_cycle;Signal;HPM_P1;HPM_P2
2024/04/16 00:02:04;;;;;;;3.97;2.13;;;17.00;96.70;;;;;;5375922;26;19996;-77
2024/04/16 00:04:33;;;;;;;4.07;2.22;;;16.90;96.70;;;;;;5419714;26;20022;-77
2024/04/16 00:07:04;;;;;;;5.43;2.58;;;17.00;96.70;;;;;;5416619;26;20014;-76
2024/04/16 00:09:35;;;;;;;4.65;2.47;;;17.00;96.70;;;;;;5415412;26;20020;-78
2024/04/16 00:12:06;;;;;;;5.88;2.70;;;16.90;96.70;;;;;;5408646;26;20070;-77
2024/04/16 00:15:10;;;;;;;5.63;2.50;;;16.90;96.70;;;;;;5402448;26;20631;-77
2024/04/16 00:17:44;;;;;;;5.93;2.40;;;16.90;96.70;;;;;;5406096;26;20084;-79
2024/04/16 00:20:13;;;;;;;4.40;2.75;;;16.90;96.70;;;;;;5363133;26;20039;-77
2024/04/16 00:22:43;;;;;;;5.47;2.45;;;17.00;96.70;;;;;;5379724;26;20003;-78
2024/04/16 00:25:12;;;;;;;5.05;2.13;;;17.00;96.70;;;;;;5410994;26;20014;-77
2024/04/16 00:27:43;;;;;;;4.88;2.63;;;16.90;96.70;;;;;;5415372;26;19999;-77
2024/04/16 00:30:17;;;;;;;5.10;2.53;;;16.80;96.70;;;;;;5365841;26;20319;-77
2024/04/16 00:32:46;;;;;;;6.40;2.70;;;16.80;96.70;;;;;;5400658;26;20589;-77
2024/04/16 00:35:16;;;;;;;4.22;2.40;;;16.80;96.70;;;;;;5386716;26;20058;-77
2024/04/16 00:37:45;;;;;;;4.72;2.20;;;16.80;96.70;;;;;;5396559;26;20469;-78
2024/04/16 00:40:14;;;;;;;4.95;2.33;;;16.90;96.70;;;;;;5396562;26;20445;-77
2024/04/16 00:42:43;;;;;;;4.13;2.33;;;16.90;96.70;;;;;;5400769;26;20008;-77
2024/04/16 00:45:15;;;;;;;4.50;2.55;;;16.80;96.70;;;;;;5412108;26;20047;-76
2024/04/16 00:47:44;;;;;;;4.32;2.50;;;16.80;96.70;;;;;;5399910;26;20000;-78
2024/04/16 00:50:15;;;;;;;4.18;2.60;;;16.80;96.70;;;;;;5408169;26;20737;-77
2024/04/16 00:52:46;;;;;;;5.43;2.40;;;16.70;96.70;;;;;;5430411;26;20023;-77
2024/04/16 00:55:15;;;;;;;7.07;2.80;;;16.60;96.70;;;;;;5431481;26;20015;-77
2024/04/16 00:57:44;;;;;;;5.10;2.42;;;16.70;96.70;;;;;;5413376;26;20027;-77
2024/04/16 01:00:16;;;;;;;4.40;2.70;;;16.70;96.70;;;;;;5417989;26;20035;-78
2024/04/16 01:02:44;;;;;;;7.18;3.30;;;16.60;96.70;;;;;;5416976;26;20015;-77
2024/04/16 01:05:13;;;;;;;6.20;2.60;;;16.50;96.70;;;;;;5409741;26;20023;-77
2024/04/16 01:07:42;;;;;;;6.75;3.20;;;16.60;96.70;;;;;;5436143;26;20015;-77
2024/04/16 01:10:11;;;;;;;5.47;2.47;;;16.60;96.70;;;;;;5416678;26;20015;-77
2024/04/16 01:12:43;;;;;;;5.95;2.72;;;16.60;96.70;;;;;;5381864;26;19996;-77
2024/04/16 01:15:12;;;;;;;5.70;2.67;;;16.60;96.70;;;;;;5397290;26;20555;-77
2024/04/16 01:17:43;;;;;;;4.43;3.00;;;16.60;96.70;;;;;;5388520;26;20010;-77
2024/04/16 01:20:12;;;;;;;5.50;2.35;;;16.50;96.70;;;;;;5374377;26;20000;-77
2024/04/16 01:22:47;;;;;;;2.97;2.40;;;16.50;96.70;;;;;;5380403;26;20011;-76
2024/04/16 01:25:16;;;;;;;4.75;2.67;;;16.40;96.70;;;;;;5375276;26;20004;-77
2024/04/16 01:27:46;;;;;;;4.22;2.70;;;16.40;96.70;;;;;;5407456;26;20012;-77
2024/04/16 01:30:17;;;;;;;4.82;2.60;;;16.40;96.70;;;;;;5414477;26;20363;-77
2024/04/16 01:32:47;;;;;;;4.13;2.50;;;16.30;96.70;;;;;;5377182;26;20003;-77
2024/04/16 01:35:16;;;;;;;5.00;2.88;;;16.30;96.70;;;;;;5378286;26;19996;-77
2024/04/16 01:37:48;;;;;;;4.55;2.60;;;16.30;96.70;;;;;;5413837;26;19998;-77
2024/04/16 01:40:18;;;;;;;4.43;2.80;;;16.20;96.70;;;;;;5424021;26;20011;-77
2024/04/16 01:42:46;;;;;;;5.80;2.70;;;16.30;96.70;;;;;;5382263;26;20003;-77
2024/04/16 01:45:15;;;;;;;6.20;3.03;;;16.30;96.70;;;;;;5378234;26;20000;-77
2024/04/16 01:47:45;;;;;;;5.28;2.90;;;16.20;96.70;;;;;;5386449;26;20008;-77
2024/04/16 01:50:13;;;;;;;4.00;2.42;;;16.20;96.70;;;;;;5407918;26;20532;-77
2024/04/16 01:52:43;;;;;;;3.53;2.78;;;16.20;96.70;;;;;;5406794;26;19999;-77
2024/04/16 01:55:16;;;;;;;5.65;2.95;;;16.30;96.70;;;;;;5375490;26;20018;-77
2024/04/16 01:57:45;;;;;;;4.30;2.90;;;16.20;96.70;;;;;;5398939;26;20025;-77
2024/04/16 02:00:15;;;;;;;5.07;3.30;;;16.20;96.70;;;;;;5417179;26;20040;-77
2024/04/16 02:02:44;;;;;;;5.20;3.50;;;16.10;96.70;;;;;;5414235;26;20375;-77
2024/04/16 02:05:14;;;;;;;4.30;2.83;;;16.20;96.70;;;;;;5421854;26;19995;-77
2024/04/16 02:07:43;;;;;;;5.07;2.97;;;16.20;96.70;;;;;;5371561;26;20012;-77
2024/04/16 02:10:16;;;;;;;4.43;2.85;;;16.20;96.70;;;;;;5380202;26;20004;-77
2024/04/16 02:12:44;;;;;;;4.22;2.75;;;16.10;96.70;;;;;;5397067;26;20011;-77
2024/04/16 02:15:13;;;;;;;5.90;2.92;;;16.10;96.70;;;;;;5414480;26;20007;-77
2024/04/16 02:17:44;;;;;;;3.97;2.50;;;16.10;96.70;;;;;;5381878;26;20003;-77
2024/04/16 02:20:13;;;;;;;5.40;2.85;;;16.00;96.70;;;;;;5378912;26;20045;-77
2024/04/16 02:22:44;;;;;;;4.57;2.97;;;16.00;96.70;;;;;;5413970;26;20011;-77
2024/04/16 02:25:17;;;;;;;3.50;2.45;;;15.90;96.70;;;;;;5370378;26;20742;-77
2024/04/16 02:27:45;;;;;;;3.50;2.78;;;15.90;96.70;;;;;;5400609;26;20008;-77
2024/04/16 02:30:13;;;;;;;3.13;2.38;;;15.90;96.70;;;;;;5378039;26;20018;-77
2024/04/16 02:32:45;;;;;;;4.80;2.42;;;16.00;96.70;;;;;;5389110;26;20002;-77
2024/04/16 02:35:13;;;;;;;6.82;2.90;;;15.90;96.70;;;;;;5408526;26;20011;-77
2024/04/16 02:37:42;;;;;;;3.75;2.70;;;15.80;96.70;;;;;;5407493;26;20065;-77
2024/04/16 02:40:12;;;;;;;4.88;2.58;;;15.80;96.70;;;;;;5428184;26;19998;-77
2024/04/16 02:42:46;;;;;;;3.33;2.65;;;15.80;96.70;;;;;;5410615;26;20465;-77
2024/04/16 02:45:15;;;;;;;5.78;2.60;;;15.80;96.70;;;;;;5386654;26;20000;-77
2024/04/16 02:47:43;;;;;;;4.07;2.67;;;15.80;96.70;;;;;;5417471;26;20076;-77
2024/04/16 02:50:12;;;;;;;3.72;2.60;;;15.80;96.70;;;;;;5414590;26;20018;-77
2024/04/16 02:52:43;;;;;;;4.53;2.65;;;15.90;96.70;;;;;;5410821;26;20076;-76
2024/04/16 02:55:11;;;;;;;3.45;2.60;;;15.70;96.70;;;;;;5410146;26;20015;-77
2024/04/16 02:57:40;;;;;;;4.35;2.63;;;15.80;96.70;;;;;;5414268;26;20011;-77
2024/04/16 03:00:12;;;;;;;4.25;3.03;;;15.70;96.70;;;;;;5416284;26;20023;-78
2024/04/16 03:02:40;;;;;;;5.82;2.53;;;15.70;96.70;;;;;;5407926;26;20397;-76
2024/04/16 03:05:09;;;;;;;4.07;2.70;;;15.60;96.70;;;;;;5405402;26;20037;-76
2024/04/16 03:07:37;;;;;;;4.10;2.35;;;15.60;96.70;;;;;;5380466;26;20043;-77
2024/04/16 03:10:06;;;;;;;4.25;2.67;;;15.50;96.70;;;;;;5375668;26;20417;-75
2024/04/16 03:12:35;;;;;;;5.07;2.70;;;15.60;96.70;;;;;;5378415;26;20101;-76
2024/04/16 03:15:04;;;;;;;4.10;2.92;;;15.50;96.70;;;;;;5376509;26;19999;-77
2024/04/16 03:17:36;;;;;;;5.75;3.30;;;15.60;96.70;;;;;;5378001;26;20344;-77
2024/04/16 03:20:06;;;;;;;5.38;2.80;;;15.50;96.70;;;;;;5392059;26;20835;-77
2024/04/16 03:22:35;;;;;;;5.38;3.08;;;15.50;96.70;;;;;;5410318;26;20002;-77
2024/04/16 03:25:04;;;;;;;4.80;2.88;;;15.50;96.70;;;;;;5405253;26;20019;-76
2024/04/16 03:27:33;;;;;;;4.00;2.80;;;15.40;96.70;;;;;;5385683;26;20105;-77
2024/04/16 03:30:02;;;;;;;4.25;2.72;;;15.30;96.70;;;;;;5376151;26;20000;-76
2024/04/16 03:32:30;;;;;;;5.95;2.97;;;15.30;96.70;;;;;;5408946;26;20000;-76
2024/04/16 03:35:02;;;;;;;4.35;2.65;;;15.40;96.70;;;;;;5376503;26;20070;-76
2024/04/16 03:37:31;;;;;;;5.30;2.60;;;15.50;96.70;;;;;;5374224;26;20549;-77
2024/04/16 03:40:05;;;;;;;4.95;2.78;;;15.40;96.70;;;;;;5377382;26;19999;-76
2024/04/16 03:42:33;;;;;;;4.22;2.58;;;15.00;96.70;;;;;;5376453;26;20425;-77
2024/04/16 03:45:03;;;;;;;4.38;2.78;;;14.90;96.70;;;;;;5357924;26;20001;-76
2024/04/16 03:47:31;;;;;;;6.10;2.70;;;15.00;96.70;;;;;;5352492;26;20004;-77
2024/04/16 03:50:04;;;;;;;3.35;2.58;;;14.90;96.70;;;;;;5372850;26;20035;-75
2024/04/16 03:52:32;;;;;;;6.20;2.83;;;15.00;96.70;;;;;;5339361;26;20015;-76
2024/04/16 03:55:01;;;;;;;3.92;2.50;;;15.10;96.70;;;;;;5392974;26;20003;-77
2024/04/16 03:57:29;;;;;;;3.60;2.85;;;15.00;96.70;;;;;;5375146;26;20060;-76
2024/04/16 04:02:46;;;;;;;3.25;2.65;;;15.10;96.70;;;;;;5378464;26;20019;-76
2024/04/16 04:05:18;;;;;;;4.53;2.67;;;15.10;96.70;;;;;;5384089;26;20683;-76
2024/04/16 04:11:41;;;;;;;4.97;3.10;;;15.10;96.70;;;;;;5396978;26;20000;-75
2024/04/16 04:14:17;;;;;;;5.68;2.88;;;15.10;96.70;;;;;;5372806;26;20020;-76
2024/04/16 04:16:50;;;;;;;4.97;3.03;;;15.10;96.70;;;;;;5380989;26;20000;-76
2024/04/16 04:19:19;;;;;;;8.70;3.58;;;15.00;96.70;;;;;;5384113;26;20432;-76
2024/04/16 04:21:50;;;;;;;6.38;3.13;;;14.90;96.70;;;;;;5382765;26;20085;-75
2024/04/16 04:24:19;;;;;;;5.72;2.70;;;14.90;96.70;;;;;;5380019;26;20043;-75
2024/04/16 04:27:30;;;;;;;5.15;2.72;;;14.80;96.70;;;;;;5358058;26;20011;-75
2024/04/16 04:29:59;;;;;;;3.10;2.63;;;14.70;96.70;;;;;;5372578;26;20040;-76
2024/04/16 04:32:30;;;;;;;7.68;2.75;;;14.60;96.70;;;;;;5378152;26;20009;-75
2024/04/16 04:34:59;;;;;;;5.43;2.65;;;14.70;96.70;;;;;;5345820;26;20632;-75
2024/04/16 04:38:22;;;;;;;3.22;2.58;;;14.60;96.70;;;;;;5369438;26;20018;-75
2024/04/16 04:40:51;;;;;;;4.90;3.20;;;14.70;96.70;;;;;;5382184;26;20503;-75
2024/04/16 04:47:07;;;;;;;8.15;2.60;;;14.60;96.70;;;;;;5403516;26;20023;-75
2024/04/16 04:49:51;;;;;;;5.25;2.97;;;14.70;96.70;;;;;;5419364;26;20000;-75
2024/04/16 04:52:20;;;;;;;5.13;3.00;;;14.60;96.70;;;;;;5391090;26;20484;-75
2024/04/16 04:54:51;;;;;;;6.15;3.05;;;14.60;96.70;;;;;;5381460;26;20013;-75
2024/04/16 05:00:23;;;;;;;5.85;3.13;;;14.50;96.70;;;;;;5419787;26;20044;-75
2024/04/16 05:03:40;;;;;;;6.10;2.72;;;14.50;96.70;;;;;;5372392;26;20015;-74
2024/04/16 05:06:13;;;;;;;5.35;2.78;;;14.20;96.70;;;;;;5412636;26;20559;-75
2024/04/16 05:08:42;;;;;;;7.43;3.42;;;14.40;96.70;;;;;;5401977;26;20493;-75
2024/04/16 05:11:16;;;;;;;5.88;2.88;;;14.40;96.70;;;;;;5391183;26;20018;-75
2024/04/16 05:13:45;;;;;;;8.25;3.10;;;14.30;96.70;;;;;;5405459;26;20007;-74
2024/04/16 05:16:14;;;;;;;6.57;2.95;;;14.50;96.70;;;;;;5409762;26;20578;-75
2024/04/16 05:18:42;;;;;;;5.03;3.25;;;14.60;96.70;;;;;;5369941;26;20004;-75
2024/04/16 05:21:11;;;;;;;5.60;2.83;;;14.60;96.70;;;;;;5407193;26;20000;-75
2024/04/16 05:23:50;;;;;;;;;;;;;;;;;;;;;
2024/04/16 05:26:22;;;;;;;9.00;4.53;;;14.40;96.70;;;;;;5389700;26;20407;-74
2024/04/16 05:28:51;;;;;;;8.52;3.10;;;14.60;96.70;;;;;;5373133;26;19997;-75
2024/04/16 05:31:19;;;;;;;9.18;3.28;;;14.70;96.70;;;;;;5405634;26;20031;-75
2024/04/16 05:33:51;;;;;;;11.60;3.72;;;14.80;96.70;;;;;;5376617;26;20011;-75
2024/04/16 05:36:20;;;;;;;11.75;3.60;;;14.90;96.70;;;;;;5399052;26;19999;-75
2024/04/16 05:38:50;;;;;;;10.65;4.57;;;15.10;96.70;;;;;;5374352;26;20272;-75
2024/04/16 05:41:23;;;;;;;8.77;3.85;;;15.20;96.70;;;;;;5407832;26;20003;-74
2024/04/16 05:43:53;;;;;;;7.60;3.40;;;15.30;96.70;;;;;;5420393;26;20007;-75
2024/04/16 05:46:24;;;;;;;8.10;3.55;;;15.30;96.70;;;;;;5416154;26;20014;-75
2024/04/16 05:48:58;;;;;;;6.90;3.38;;;15.30;96.70;;;;;;5388513;26;20000;-77
2024/04/16 05:51:26;;;;;;;7.03;3.65;;;15.40;96.70;;;;;;5410447;26;20000;-75
2024/04/16 05:53:59;;;;;;;9.52;4.25;;;15.50;96.70;;;;;;5421509;26;19999;-75
2024/04/16 05:56:30;;;;;;;15.30;4.53;;;15.70;96.70;;;;;;5387355;26;20035;-75
2024/04/16 05:58:59;;;;;;;17.35;4.80;;;15.60;96.70;;;;;;5413374;26;20008;-76
2024/04/16 06:01:33;;;;;;;13.27;3.80;;;15.70;96.70;;;;;;5388619;26;20056;-75
2024/04/16 06:04:24;;;;;;;18.27;4.43;;;16.00;96.70;;;;;;5379260;26;20813;-76
2024/04/16 06:06:55;;;;;;;15.68;4.13;;;16.30;96.70;;;;;;5404419;26;20027;-75
2024/04/16 06:09:25;;;;;;;15.45;3.60;;;16.50;96.70;;;;;;5393375;26;19996;-76
2024/04/16 06:11:56;;;;;;;20.52;4.25;;;16.60;96.70;;;;;;5374650;26;20010;-75
2024/04/16 06:14:25;;;;;;;17.05;4.32;;;16.60;96.70;;;;;;5400005;26;20616;-75
2024/04/16 06:16:55;;;;;;;18.75;4.57;;;16.70;96.70;;;;;;5420578;26;20011;-75
2024/04/16 06:19:27;;;;;;;19.38;4.75;;;16.70;96.70;;;;;;5405903;26;20004;-76
2024/04/16 06:21:58;;;;;;;15.73;3.70;;;16.80;96.70;;;;;;5405789;26;20702;-74
2024/04/16 06:24:30;;;;;;;21.55;4.43;;;16.90;96.70;;;;;;5378247;26;20914;-76
2024/04/16 06:27:02;;;;;;;19.33;3.95;;;17.00;96.70;;;;;;5376624;26;20076;-77
2024/04/16 06:29:31;;;;;;;18.05;4.15;;;17.10;96.70;;;;;;5383164;26;20009;-78
2024/04/16 06:32:00;;;;;;;25.38;5.30;;;17.10;96.70;;;;;;5379824;26;20357;-77
2024/04/16 06:34:29;;;;;;;17.67;3.83;;;17.20;96.70;;;;;;5382316;26;20014;-76
2024/04/16 06:36:57;;;;;;;17.25;3.13;;;17.20;96.70;;;;;;5419277;26;20103;-77
2024/04/16 06:39:26;;;;;;;15.60;3.53;;;17.20;96.70;;;;;;5421979;26;20019;-77
2024/04/16 06:42:02;;;;;;;19.30;3.40;;;17.30;96.70;;;;;;5406595;26;20421;-77
2024/04/16 06:44:31;;;;;;;17.42;3.15;;;17.30;96.70;;;;;;5382869;26;20007;-78
2024/04/16 06:47:00;;;;;;;19.83;3.95;;;17.40;96.70;;;;;;5406232;26;20014;-77
2024/04/16 06:49:34;;;;;;;18.90;3.17;;;17.40;96.70;;;;;;5406683;26;20003;-76
2024/04/16 06:52:04;;;;;;;20.13;4.05;;;17.40;96.70;;;;;;5379951;26;20011;-76
2024/04/16 06:54:33;;;;;;;20.48;3.47;;;17.50;96.70;;;;;;5392788;26;19996;-76
2024/04/16 06:57:06;;;;;;;16.50;3.80;;;17.50;96.70;;;;;;5414896;26;20007;-78
2024/04/16 06:59:35;;;;;;;16.05;3.67;;;17.60;96.70;;;;;;5381502;26;20061;-77
2024/04/16 07:02:07;;;;;;;20.17;3.97;;;17.70;96.70;;;;;;5386753;26;20490;-78
2024/04/16 07:04:36;;;;;;;22.33;4.22;;;17.70;96.70;;;;;;5376802;26;20453;-78
2024/04/16 07:07:05;;;;;;;12.27;3.33;;;17.70;96.70;;;;;;5438766;26;20002;-79
2024/04/16 07:09:54;;;;;;;18.08;3.53;;;17.80;96.70;;;;;;5405356;26;19995;-77
2024/04/16 07:12:25;;;;;;;17.60;4.15;;;17.70;96.70;;;;;;5375867;26;20057;-78
2024/04/16 07:14:54;;;;;;;13.55;3.35;;;17.80;96.70;;;;;;5390463;26;20325;-77
2024/04/16 07:17:23;;;;;;;14.15;3.15;;;17.80;96.70;;;;;;5398240;26;20494;-78
2024/04/16 07:19:51;;;;;;;14.45;3.08;;;17.90;96.70;;;;;;5409934;26;20023;-77
2024/04/16 07:22:20;;;;;;;12.50;3.17;;;18.00;96.70;;;;;;5387445;26;20379;-77
2024/04/16 07:24:50;;;;;;;13.10;3.13;;;18.10;96.70;;;;;;5413333;26;20266;-77
2024/04/16 07:27:18;;;;;;;20.85;3.65;;;18.20;96.70;;;;;;5412942;26;20010;-77
2024/04/16 07:29:53;;;;;;;14.88;3.00;;;18.20;96.70;;;;;;5394061;26;20356;-78
2024/04/16 07:32:24;;;;;;;14.82;3.17;;;18.20;96.70;;;;;;5414447;26;20021;-78
2024/04/16 07:34:54;;;;;;;14.45;3.25;;;18.20;96.70;;;;;;5414664;26;20661;-80
2024/04/16 07:37:25;;;;;;;16.65;3.28;;;18.10;96.70;;;;;;5409331;26;20506;-79
2024/04/16 07:39:57;;;;;;;11.75;2.90;;;18.20;96.70;;;;;;5380416;26;20007;-78
2024/04/16 07:42:26;;;;;;;14.32;3.45;;;18.30;96.70;;;;;;5409651;26;20018;-79
2024/04/16 07:44:57;;;;;;;10.70;2.30;;;18.30;96.70;;;;;;5419542;26;20005;-82
2024/04/16 07:47:26;;;;;;;15.27;3.60;;;18.30;96.70;;;;;;5403910;26;20022;-78
2024/04/16 07:49:55;;;;;;;13.75;2.63;;;18.10;96.70;;;;;;5418102;26;20006;-77
2024/04/16 07:52:29;;;;;;;10.27;2.50;;;18.00;96.70;;;;;;5380917;26;20004;-79
2024/04/16 07:55:02;;;;;;;12.65;2.83;;;17.90;96.70;;;;;;5416203;26;20000;-79
2024/04/16 07:57:31;;;;;;;14.85;3.17;;;17.80;96.70;;;;;;5381807;26;20015;-79
2024/04/16 08:00:06;;;;;;;13.63;2.30;;;17.80;96.70;;;;;;5393504;26;20009;-78
2024/04/16 08:02:41;;;;;;;14.98;3.33;;;17.70;96.70;;;;;;5377672;26;20512;-79
2024/04/16 08:05:10;;;;;;;17.45;3.25;;;17.70;96.70;;;;;;5420801;26;20433;-79
2024/04/16 08:07:43;;;;;;;12.63;2.78;;;17.60;96.70;;;;;;5410856;26;20835;-78
2024/04/16 08:10:12;;;;;;;13.95;2.90;;;17.60;96.70;;;;;;5405433;26;20051;-77
2024/04/16 08:12:41;;;;;;;13.90;3.05;;;17.60;96.70;;;;;;5437806;26;19996;-77
2024/04/16 08:15:12;;;;;;;13.02;3.08;;;17.70;96.70;;;;;;5409552;26;20383;-79
2024/04/16 08:17:41;;;;;;;14.43;2.83;;;17.70;96.70;;;;;;5383206;26;20000;-78
2024/04/16 08:20:12;;;;;;;11.45;2.30;;;17.70;96.70;;;;;;5406268;26;20015;-78
2024/04/16 08:22:45;;;;;;;12.15;2.47;;;17.70;96.70;;;;;;5389102;26;20017;-77
2024/04/16 08:25:23;;;;;;;8.73;2.75;;;17.70;96.70;;;;;;5352936;26;20012;-77
2024/04/16 08:27:52;;;;;;;12.07;3.28;;;17.80;96.70;;;;;;5374169;26;20475;-76
2024/04/16 08:30:26;;;;;;;18.17;3.08;;;17.80;96.70;;;;;;5405664;26;20030;-77
2024/04/16 08:32:56;;;;;;;15.57;2.90;;;17.90;96.70;;;;;;5406757;26;20376;-76
2024/04/16 08:35:27;;;;;;;11.82;2.60;;;18.00;96.70;;;;;;5405803;26;20008;-76
2024/04/16 08:37:56;;;;;;;16.70;2.75;;;18.00;96.70;;;;;;5377888;26;19999;-75
2024/04/16 08:40:37;;;;;;;17.92;3.15;;;18.00;96.70;;;;;;5378032;26;20738;-77
2024/04/16 08:43:06;;;;;;;15.77;3.75;;;18.00;96.70;;;;;;5376734;26;20024;-77
2024/04/16 08:45:58;;;;;;;13.63;2.65;;;17.90;96.70;;;;;;5409806;26;20033;-77
2024/04/16 08:48:28;;;;;;;17.30;3.33;;;18.00;96.70;;;;;;5377357;26;20348;-76
2024/04/16 08:50:58;;;;;;;16.50;3.22;;;18.00;96.70;;;;;;5370388;26;20028;-76
2024/04/16 08:53:30;;;;;;;16.70;3.50;;;18.10;96.70;;;;;;5407610;26;20000;-76
2024/04/16 08:56:31;;;;;;;16.95;2.47;;;18.20;96.70;;;;;;5392590;26;20044;-76
2024/04/16 08:59:02;;;;;;;19.00;3.17;;;18.30;96.70;;;;;;5381822;26;20743;-78
2024/04/16 09:01:37;;;;;;;16.08;2.92;;;18.30;96.70;;;;;;5394982;26;20013;-76
2024/04/16 09:07:43;;;;;;;15.55;3.33;;;18.50;96.70;;;;;;5406084;26;20014;-76
2024/04/16 09:10:13;;;;;;;17.20;2.95;;;18.60;96.70;;;;;;5387435;26;20109;-75
2024/04/16 09:12:44;;;;;;;15.48;2.85;;;18.60;96.70;;;;;;5380206;26;20011;-75
2024/04/16 09:15:13;;;;;;;14.20;2.85;;;18.50;96.70;;;;;;5377521;26;20000;-77
2024/04/16 09:17:50;;;;;;;18.35;3.15;;;18.70;96.70;;;;;;5396349;26;19996;-77
2024/04/16 09:20:27;;;;;;;17.10;3.05;;;18.80;96.70;;;;;;5403824;26;20080;-77
2024/04/16 09:22:56;;;;;;;10.93;2.42;;;18.90;96.70;;;;;;5407719;26;20008;-76
2024/04/16 09:25:28;;;;;;;14.05;2.58;;;19.00;96.70;;;;;;5396873;26;20010;-75
2024/04/16 09:27:58;;;;;;;17.58;3.78;;;19.00;96.70;;;;;;5422759;26;20118;-77
2024/04/16 09:30:27;;;;;;;16.55;3.20;;;18.80;96.70;;;;;;5410410;26;20014;-78
2024/04/16 09:33:11;;;;;;;13.73;3.20;;;18.80;96.70;;;;;;5406755;26;20076;-77
2024/04/16 09:35:50;;;;;;;23.13;4.05;;;18.90;96.70;;;;;;5402388;26;20007;-78
2024/04/16 09:38:21;;;;;;;16.95;3.28;;;18.80;96.70;;;;;;5407118;26;20004;-78
2024/04/16 09:40:53;;;;;;;14.75;2.40;;;18.70;96.70;;;;;;5406570;26;20019;-78
2024/04/16 09:43:23;;;;;;;17.20;3.15;;;18.60;96.70;;;;;;5408669;26;20011;-78
2024/04/16 09:46:18;;;;;;;15.85;3.15;;;18.60;96.70;;;;;;5408254;26;20015;-79
2024/04/16 09:48:57;;;;;;;15.35;2.90;;;18.70;96.70;;;;;;5378494;26;19999;-78
2024/04/16 09:51:37;;;;;;;13.90;3.78;;;18.90;96.70;;;;;;5394063;26;20043;-79
2024/04/16 09:54:11;;;;;;;15.13;3.70;;;19.20;96.70;;;;;;5378868;26;20047;-76
2024/04/16 09:56:43;;;;;;;17.45;3.13;;;19.10;96.70;;;;;;5407479;26;20349;-79
2024/04/16 09:59:14;;;;;;;16.70;3.28;;;18.90;96.70;;;;;;5387376;26;20003;-78
2024/04/16 10:01:46;;;;;;;17.13;3.20;;;19.00;96.70;;;;;;5390897;26;20077;-79
2024/04/16 10:04:18;;;;;;;14.50;3.00;;;19.20;96.70;;;;;;5407066;26;20007;-79
2024/04/16 10:06:50;;;;;;;12.88;2.63;;;19.40;96.70;;;;;;5405773;26;20074;-79
2024/04/16 10:09:21;;;;;;;16.73;2.97;;;19.40;96.70;;;;;;5402378;26;20000;-79
2024/04/16 10:11:54;;;;;;;21.02;2.38;;;19.20;96.70;;;;;;5374108;26;20008;-79
2024/04/16 10:14:27;;;;;;;12.20;2.45;;;19.40;96.70;;;;;;5403229;26;20017;-80
2024/04/16 10:16:55;;;;;;;12.63;2.63;;;19.40;96.70;;;;;;5407125;26;20013;-80
2024/04/16 10:19:29;;;;;;;13.32;3.20;;;19.10;96.70;;;;;;5378040;26;20031;-78
2024/04/16 10:22:15;;;;;;;10.93;2.80;;;19.20;96.70;;;;;;5369542;26;20071;-79
2024/04/16 10:24:54;;;;;;;15.82;3.05;;;19.30;96.70;;;;;;5377044;26;20841;-80
2024/04/16 10:27:48;;;;;;;18.42;3.67;;;19.30;96.70;;;;;;5377118;26;20010;-79
2024/04/16 10:30:21;;;;;;;16.50;3.40;;;19.30;96.70;;;;;;5406354;26;20035;-80
2024/04/16 10:32:49;;;;;;;13.85;3.17;;;19.60;96.70;;;;;;5406552;26;20690;-80
2024/04/16 10:35:21;;;;;;;15.77;3.35;;;19.80;96.70;;;;;;5377361;26;19999;-79
2024/04/16 10:37:52;;;;;;;7.25;2.28;;;19.70;96.70;;;;;;5372713;26;20016;-79
2024/04/16 10:40:27;;;;;;;14.43;3.42;;;19.70;96.70;;;;;;5404180;26;20018;-80
2024/04/16 10:42:58;;;;;;;16.92;3.60;;;19.90;96.70;;;;;;5368426;26;19999;-80
2024/04/16 10:45:28;;;;;;;15.95;3.30;;;19.80;96.70;;;;;;5376805;26;20449;-80
2024/04/16 10:48:00;;;;;;;13.40;3.15;;;19.70;96.70;;;;;;5409627;26;20822;-80
2024/04/16 10:50:38;;;;;;;11.55;2.90;;;19.80;96.70;;;;;;5414244;26;20459;-79
2024/04/16 10:53:11;;;;;;;12.95;3.10;;;19.90;96.70;;;;;;5385541;26;20038;-79
2024/04/16 10:55:40;;;;;;;13.77;2.40;;;20.10;96.70;;;;;;5414282;26;20076;-78
2024/04/16 10:58:56;;;;;;;10.20;2.25;;;19.80;96.70;;;;;;5376837;26;20129;-77
2024/04/16 11:01:14;;;;;;;19.00;3.42;;;19.60;96.70;;;;;;5410958;26;20003;-78
2024/04/16 11:03:56;;;;;;;12.88;2.80;;;19.20;96.70;;;;;;5415112;26;20007;-80
2024/04/16 11:06:35;;;;;;;11.48;2.92;;;19.50;96.70;;;;;;5413625;26;20014;-79
2024/04/16 11:09:10;;;;;;;14.10;2.97;;;19.50;96.70;;;;;;5413843;26;20003;-78
2024/04/16 11:11:41;;;;;;;10.98;2.85;;;19.50;96.70;;;;;;5413504;26;20156;-78
2024/04/16 11:15:00;;;;;;;16.15;3.47;;;19.40;96.70;;;;;;5398857;26;20018;-78
2024/04/16 11:17:18;;;;;;;13.93;2.95;;;19.40;96.70;;;;;;5412753;26;20003;-79
2024/04/16 11:23:20;;;;;;;13.15;3.30;;;19.90;96.70;;;;;;5380401;26;20461;-79
2024/04/16 11:25:59;;;;;;;16.88;3.13;;;20.10;96.70;;;;;;5414154;26;20678;-79
2024/04/16 11:29:03;;;;;;;14.85;2.65;;;20.10;96.70;;;;;;5413288;26;20414;-79
2024/04/16 11:31:42;;;;;;;12.00;2.45;;;20.10;96.70;;;;;;5402463;26;20007;-78
2024/04/16 11:34:23;;;;;;;15.95;2.70;;;20.30;96.70;;;;;;5412870;26;20452;-77
2024/04/16 11:36:56;;;;;;;11.68;2.88;;;20.30;96.70;;;;;;5384310;26;20004;-78
2024/04/16 11:39:36;;;;;;;12.15;2.22;;;20.40;96.70;;;;;;5412921;26;20031;-76
2024/04/16 11:45:29;;;;;;;;;;;20.40;96.70;;;;;;5415628;26;20133;-80
2024/04/16 11:48:00;;;;;;;10.25;2.22;;;20.20;96.70;;;;;;5415108;26;19936;-78
2024/04/16 11:50:53;;;;;;;13.20;2.88;;;20.30;96.70;;;;;;5372256;26;20376;-80
2024/04/16 11:53:37;;;;;;;13.35;2.58;;;20.40;96.70;;;;;;5386594;26;20004;-78
2024/04/16 11:56:12;;;;;;;15.13;2.67;;;20.50;96.70;;;;;;5411981;26;20404;-79
2024/04/16 11:58:42;;;;;;;13.13;2.65;;;20.30;96.70;;;;;;5411774;26;20003;-79
2024/04/16 12:01:12;;;;;;;10.95;2.65;;;20.40;96.70;;;;;;5372942;26;20078;-79
2024/04/16 12:07:36;;;;;;;15.75;2.42;;;20.30;96.70;;;;;;5375448;26;20017;-79
2024/04/16 12:10:06;;;;;;;13.80;2.88;;;20.50;96.70;;;;;;5379652;26;20071;-78
2024/04/16 12:12:38;;;;;;;12.18;2.55;;;20.60;96.70;;;;;;5408660;26;19995;-79
2024/04/16 12:15:10;;;;;;;12.32;2.22;;;20.40;96.70;;;;;;5408104;26;20641;-80
2024/04/16 12:21:07;;;;;;;12.57;2.50;;;20.30;96.70;;;;;;5371465;26;20003;-79
2024/04/16 12:23:37;;;;;;;14.43;3.00;;;20.80;96.70;;;;;;5395962;26;20246;-79
2024/04/16 12:26:05;;;;;;;14.88;3.30;;;21.00;96.70;;;;;;5379394;26;20036;-80
2024/04/16 12:28:47;;;;;;;9.43;2.67;;;21.40;96.70;;;;;;5379619;26;19999;-81
2024/04/16 12:31:31;;;;;;;12.45;2.40;;;20.90;96.70;;;;;;5379311;26;20139;-77
2024/04/16 12:34:01;;;;;;;12.73;2.50;;;21.00;96.70;;;;;;5404414;26;20081;-79
2024/04/16 12:36:31;;;;;;;17.33;3.03;;;21.10;96.70;;;;;;5372457;26;20008;-79
2024/04/16 12:38:59;;;;;;;17.27;3.08;;;21.10;96.70;;;;;;5370421;26;20001;-81
2024/04/16 12:41:28;;;;;;;9.55;2.75;;;21.00;96.70;;;;;;5392914;26;20076;-79
2024/04/16 12:43:59;;;;;;;12.32;3.35;;;20.90;96.70;;;;;;5408238;26;19996;-79
2024/04/16 12:46:31;;;;;;;14.32;3.00;;;21.00;96.70;;;;;;5409118;26;20003;-78
2024/04/16 12:49:01;;;;;;;9.32;2.83;;;21.20;96.70;;;;;;5379199;26;20433;-79
2024/04/16 12:51:35;;;;;;;13.63;2.75;;;20.60;96.70;;;;;;5407865;26;20076;-79
2024/04/16 12:54:14;;;;;;;17.40;3.15;;;20.30;96.70;;;;;;5367000;26;20569;-79
2024/04/16 12:57:06;;;;;;;17.00;3.60;;;20.20;96.70;;;;;;5398285;26;20008;-79
2024/04/16 12:59:39;;;;;;;14.32;3.30;;;20.20;96.70;;;;;;5408093;26;19999;-79
2024/04/16 13:02:18;;;;;;;17.95;3.45;;;20.00;96.70;;;;;;5379021;26;20457;-78
2024/04/16 13:05:11;;;;;;;14.20;3.17;;;20.10;96.70;;;;;;5358033;26;20301;-79
2024/04/16 13:07:56;;;;;;;10.07;2.78;;;20.50;96.70;;;;;;5407352;26;21512;-78
2024/04/16 13:10:30;;;;;;;11.85;2.85;;;20.20;96.70;;;;;;5377772;26;20677;-79
2024/04/16 13:13:02;;;;;;;;;;;19.90;96.70;;;;;;5408648;26;20465;-79
2024/04/16 13:15:36;;;;;;;14.88;3.80;;;19.90;96.70;;;;;;5395403;26;19979;-79
2024/04/16 13:18:09;;;;;;;12.55;3.05;;;20.10;96.70;;;;;;5407094;26;20003;-79
2024/04/16 13:20:41;;;;;;;16.85;3.58;;;19.80;96.70;;;;;;5378201;26;20070;-78
2024/04/16 13:23:17;;;;;;;12.63;2.85;;;20.00;96.70;;;;;;5401008;26;20004;-79
2024/04/16 13:25:48;;;;;;;15.45;3.47;;;20.10;96.70;;;;;;5363345;26;20013;-79
2024/04/16 13:28:27;;;;;;;13.52;2.78;;;20.30;96.70;;;;;;5407424;26;20015;-80
2024/04/16 13:31:05;;;;;;;12.80;2.75;;;20.30;96.70;;;;;;5407615;26;19996;-78
2024/04/16 13:33:40;;;;;;;12.48;3.13;;;20.60;96.70;;;;;;5403037;26;20008;-79
2024/04/16 13:36:31;;;;;;;16.95;3.70;;;20.70;96.70;;;;;;5407267;26;20003;-78
2024/04/16 13:39:00;;;;;;;12.85;2.65;;;21.10;96.70;;;;;;5406845;26;20013;-78
2024/04/16 13:41:30;;;;;;;14.85;3.15;;;21.40;96.70;;;;;;5406874;26;20317;-79
2024/04/16 13:44:05;;;;;;;14.77;2.72;;;21.60;96.70;;;;;;5409693;26;20011;-79